createdAt,value
2023-02-11T00:01:11.203Z,27.67
2023-02-11T00:04:14.529Z,28.10
2023-02-11T00:07:17.667Z,27.67
2023-02-11T00:10:20.970Z,26.38
2023-02-11T00:13:25.246Z,25.77
2023-02-11T00:16:29.653Z,26.27
2023-02-11T00:19:33.274Z,26.37
2023-02-11T00:22:36.505Z,25.45
2023-02-11T00:25:41.355Z,23.88
2023-02-11T00:28:45.611Z,24.13
2023-02-11T00:31:48.977Z,23.88
2023-02-11T00:34:53.625Z,25.83
2023-02-11T00:37:57.306Z,24.10
2023-02-11T00:41:00.522Z,22.98
2023-02-11T00:44:03.994Z,22.60
2023-02-11T00:47:07.223Z,23.42
2023-02-11T00:50:10.569Z,22.33
2023-02-11T00:53:13.755Z,21.88
2023-02-11T00:56:17.202Z,20.52
2023-02-11T00:59:20.364Z,22.53
2023-02-11T01:02:23.651Z,22.92
2023-02-11T01:05:27.023Z,24.17
2023-02-11T01:08:30.624Z,24.60
2023-02-11T01:11:33.883Z,26.35
2023-02-11T01:14:37.090Z,24.92
2023-02-11T01:17:40.359Z,26.30
2023-02-11T01:20:43.716Z,25.90
2023-02-11T01:23:47.160Z,26.73
2023-02-11T01:26:50.391Z,24.67
2023-02-11T01:29:53.622Z,25.80
2023-02-11T01:32:57.066Z,24.45
2023-02-11T01:36:05.396Z,25.38
2023-02-11T01:39:08.998Z,23.85
2023-02-11T01:42:20.211Z,24.50
2023-02-11T01:45:47.310Z,24.25
2023-02-11T01:49:08.029Z,24.80
2023-02-11T01:52:17.694Z,23.83
2023-02-11T01:55:40.285Z,21.77
2023-02-11T01:58:45.911Z,22.77
2023-02-11T02:01:56.705Z,22.87
2023-02-11T02:05:23.851Z,21.63
2023-02-11T02:08:38.792Z,21.10
2023-02-11T02:11:42.302Z,21.83
2023-02-11T02:14:45.944Z,22.08
2023-02-11T02:17:58.273Z,23.60
2023-02-11T02:21:20.301Z,24.70
2023-02-11T02:24:44.996Z,25.10
2023-02-11T02:28:13.132Z,26.88
2023-02-11T02:31:48.851Z,25.65
2023-02-11T02:35:10.107Z,25.63
2023-02-11T02:38:59.674Z,24.95
2023-02-11T02:42:04.687Z,24.92
2023-02-11T02:45:09.131Z,25.13
2023-02-11T02:48:31.131Z,27.67
2023-02-11T02:52:08.126Z,25.15
2023-02-11T02:55:22.960Z,25.35
2023-02-11T02:58:50.672Z,25.27
2023-02-11T03:02:08.663Z,24.83
2023-02-11T03:05:31.082Z,25.48
2023-02-11T03:08:49.126Z,24.23
2023-02-11T03:11:53.169Z,25.52
2023-02-11T03:14:56.337Z,24.73
2023-02-11T03:18:02.071Z,24.77
2023-02-11T03:21:07.451Z,25.40
2023-02-11T03:24:36.540Z,25.58
2023-02-11T03:27:53.153Z,24.27
2023-02-11T03:31:22.347Z,25.03
2023-02-11T03:34:49.979Z,23.33
2023-02-11T03:38:06.166Z,24.17
2023-02-11T03:41:10.771Z,24.73
2023-02-11T03:44:17.024Z,24.25
2023-02-11T03:47:25.355Z,24.75
2023-02-11T03:50:32.099Z,23.48
2023-02-11T03:53:36.344Z,23.10
2023-02-11T03:56:51.299Z,24.55
2023-02-11T03:59:57.470Z,23.05
2023-02-11T04:03:01.193Z,22.60
2023-02-11T04:06:04.884Z,21.85
2023-02-11T04:09:08.880Z,22.15
2023-02-11T04:12:12.107Z,21.77
2023-02-11T04:15:15.789Z,22.50
2023-02-11T04:18:18.919Z,21.65
2023-02-11T04:21:22.091Z,19.90
2023-02-11T04:24:25.274Z,22.13
2023-02-11T04:27:28.517Z,20.55
2023-02-11T04:30:31.800Z,20.05
2023-02-11T04:33:34.989Z,18.37
2023-02-11T04:36:38.426Z,18.50
2023-02-11T04:39:42.169Z,17.83
2023-02-11T04:42:45.421Z,18.90
2023-02-11T04:45:49.070Z,18.08
2023-02-11T04:48:52.582Z,18.45
2023-02-11T04:51:55.940Z,18.77
2023-02-11T04:54:59.201Z,17.40
2023-02-11T04:58:02.403Z,18.73
2023-02-11T05:01:13.326Z,20.83
2023-02-11T05:04:17.008Z,21.23
2023-02-11T05:07:20.270Z,20.38
2023-02-11T05:10:23.695Z,22.02
2023-02-11T05:13:26.848Z,23.27
2023-02-11T05:16:30.118Z,23.10
2023-02-11T05:19:33.596Z,21.75
2023-02-11T05:22:36.800Z,21.88
2023-02-11T05:25:40.323Z,21.90
2023-02-11T05:28:44.554Z,23.38
2023-02-11T05:31:47.722Z,23.83
2023-02-11T05:34:50.978Z,22.07
2023-02-11T05:37:54.341Z,22.48
2023-02-11T05:40:59.194Z,20.88
2023-02-11T05:44:02.455Z,21.77
2023-02-11T05:47:05.661Z,21.70
2023-02-11T05:50:09.376Z,21.15
2023-02-11T05:53:14.399Z,19.55
2023-02-11T05:56:18.132Z,20.25
2023-02-11T05:59:21.352Z,20.60
2023-02-11T06:02:24.682Z,19.17
2023-02-11T06:05:27.926Z,20.40
2023-02-11T06:08:31.323Z,19.45
2023-02-11T06:11:34.512Z,19.67
2023-02-11T06:14:38.089Z,19.33
2023-02-11T06:17:41.226Z,17.08
2023-02-11T06:20:44.418Z,18.15
2023-02-11T06:23:47.686Z,18.88
2023-02-11T06:26:51.015Z,17.38
2023-02-11T06:29:54.317Z,17.95
2023-02-11T06:32:57.650Z,17.65
2023-02-11T06:36:01.487Z,17.60
2023-02-11T06:39:05.870Z,19.65
2023-02-11T06:42:10.650Z,16.95
2023-02-11T06:45:14.154Z,17.63
2023-02-11T06:48:17.540Z,15.75
2023-02-11T06:51:20.789Z,17.65
2023-02-11T06:54:24.024Z,17.58
2023-02-11T06:57:28.400Z,18.63
2023-02-11T07:00:31.595Z,18.88
2023-02-11T07:03:40.243Z,18.20
2023-02-11T07:06:43.579Z,17.87
2023-02-11T07:09:46.760Z,17.08
2023-02-11T07:12:49.999Z,18.00
2023-02-11T07:15:53.894Z,17.27
2023-02-11T07:18:57.168Z,17.13
2023-02-11T07:22:00.383Z,17.35
2023-02-11T07:25:04.561Z,18.08
2023-02-11T07:28:07.806Z,17.75
2023-02-11T07:31:17.789Z,16.75
2023-02-11T07:34:21.089Z,17.52
2023-02-11T07:37:24.399Z,17.57
2023-02-11T07:40:27.683Z,18.45
2023-02-11T07:43:32.030Z,18.77
2023-02-11T07:46:35.888Z,18.80
2023-02-11T07:49:39.189Z,18.58
2023-02-11T07:52:42.469Z,19.52
2023-02-11T07:55:45.697Z,17.30
2023-02-11T07:58:49.574Z,18.30
2023-02-11T08:01:53.120Z,18.77
2023-02-11T08:04:56.298Z,18.17
2023-02-11T08:07:59.428Z,18.23
2023-02-11T08:11:11.623Z,18.88
2023-02-11T08:14:14.935Z,18.58
2023-02-11T08:17:18.387Z,18.03
2023-02-11T08:20:21.594Z,19.30
2023-02-11T08:23:24.820Z,19.13
2023-02-11T08:26:31.843Z,19.10
2023-02-11T08:29:35.494Z,19.83
2023-02-11T08:32:39.564Z,19.80
2023-02-11T08:35:42.802Z,19.92
2023-02-11T08:38:46.742Z,19.87
2023-02-11T08:41:51.296Z,20.95
2023-02-11T08:44:54.425Z,21.25
2023-02-11T08:47:57.687Z,20.83
2023-02-11T08:51:01.039Z,21.20
2023-02-11T08:54:04.469Z,21.58
2023-02-11T08:57:07.696Z,20.05
2023-02-11T09:00:11.589Z,21.20
2023-02-11T09:03:16.049Z,20.40
2023-02-11T09:06:19.769Z,18.83
2023-02-11T09:09:22.957Z,17.37
2023-02-11T09:12:26.218Z,19.65
2023-02-11T09:15:29.487Z,17.85
2023-02-11T09:18:33.169Z,19.67
2023-02-11T09:21:36.541Z,18.75
2023-02-11T09:24:40.052Z,19.15
2023-02-11T09:27:43.219Z,18.90
2023-02-11T09:30:46.559Z,17.00
2023-02-11T09:33:52.428Z,18.80
2023-02-11T09:36:55.668Z,16.60
2023-02-11T09:39:59.289Z,17.43
2023-02-11T09:43:11.776Z,17.15
2023-02-11T09:46:17.538Z,16.33
2023-02-11T09:49:26.576Z,16.17
2023-02-11T09:52:40.115Z,16.33
2023-02-11T09:55:48.029Z,14.88
2023-02-11T09:58:51.454Z,14.63
2023-02-11T10:02:01.166Z,15.03
2023-02-11T10:05:28.308Z,13.93
2023-02-11T10:08:50.059Z,14.15
2023-02-11T10:11:56.606Z,13.70
2023-02-11T10:15:21.726Z,14.67
2023-02-11T10:18:34.061Z,13.80
2023-02-11T10:21:51.614Z,13.82
2023-02-11T10:25:00.362Z,12.50
2023-02-11T10:28:16.457Z,12.30
2023-02-11T10:31:27.006Z,12.70
2023-02-11T10:34:30.411Z,12.95
2023-02-11T10:37:33.562Z,10.93
2023-02-11T10:40:39.452Z,11.67
2023-02-11T10:43:43.552Z,11.15
2023-02-11T10:46:46.785Z,11.85
2023-02-11T10:49:50.138Z,11.43
2023-02-11T10:53:09.804Z,13.23
2023-02-11T10:56:23.831Z,15.45
2023-02-11T10:59:33.134Z,12.68
2023-02-11T11:02:38.853Z,16.65
2023-02-11T11:05:50.914Z,16.25
2023-02-11T11:08:54.356Z,17.33
2023-02-11T11:11:57.632Z,15.82
2023-02-11T11:15:14.221Z,16.23
2023-02-11T11:18:22.617Z,15.52
2023-02-11T11:21:35.110Z,16.17
2023-02-11T11:24:46.802Z,16.38
2023-02-11T11:27:52.887Z,15.45
2023-02-11T11:30:59.272Z,16.02
2023-02-11T11:34:29.852Z,15.43
2023-02-11T11:37:37.521Z,16.58
2023-02-11T11:40:41.000Z,14.48
2023-02-11T11:44:15.083Z,15.15
2023-02-11T11:47:48.886Z,15.97
2023-02-11T11:51:02.168Z,15.02
2023-02-11T11:54:11.303Z,14.63
2023-02-11T11:57:22.123Z,14.82
2023-02-11T12:00:32.928Z,15.83
2023-02-11T12:04:07.179Z,14.52
2023-02-11T12:07:53.360Z,14.32
2023-02-11T12:11:39.099Z,15.07
2023-02-11T12:15:15.474Z,14.43
2023-02-11T12:18:39.534Z,15.60
2023-02-11T12:21:52.730Z,16.20
2023-02-11T12:25:20.246Z,14.50
2023-02-11T12:28:38.814Z,12.45
2023-02-11T12:32:00.908Z,13.30
2023-02-11T12:35:20.802Z,15.00
2023-02-11T12:38:29.645Z,14.43
2023-02-11T12:42:20.318Z,14.82
2023-02-11T12:45:59.320Z,15.68
2023-02-11T12:49:24.143Z,15.13
2023-02-11T12:52:44.479Z,14.20
2023-02-11T12:55:51.727Z,14.18
2023-02-11T12:58:58.984Z,12.45
2023-02-11T13:02:10.969Z,12.23
2023-02-11T13:05:38.664Z,11.25
2023-02-11T13:08:46.878Z,11.23
2023-02-11T13:12:19.379Z,12.77
2023-02-11T13:15:23.884Z,11.80
2023-02-11T13:18:44.905Z,13.38
2023-02-11T13:21:54.148Z,11.75
2023-02-11T13:25:07.223Z,13.37
2023-02-11T13:28:37.169Z,13.10
2023-02-11T13:31:40.873Z,13.48
2023-02-11T13:34:44.199Z,13.55
2023-02-11T13:37:49.925Z,12.57
2023-02-11T13:41:16.019Z,12.27
2023-02-11T13:44:26.203Z,13.40
2023-02-11T13:47:36.688Z,12.48
2023-02-11T13:50:47.826Z,12.80
2023-02-11T13:53:57.209Z,13.32
2023-02-11T13:57:26.178Z,12.73
2023-02-11T14:00:35.902Z,13.55
2023-02-11T14:04:18.851Z,13.60
2023-02-11T14:07:49.515Z,13.55
2023-02-11T14:10:56.867Z,13.38
2023-02-11T14:14:15.061Z,15.93
2023-02-11T14:17:20.243Z,14.05
2023-02-11T14:20:42.022Z,14.50
2023-02-11T14:23:45.959Z,11.77
2023-02-11T14:27:00.391Z,12.63
2023-02-11T14:30:20.716Z,13.47
2023-02-11T14:33:48.344Z,12.85
2023-02-11T14:37:39.694Z,13.85
2023-02-11T14:40:55.143Z,14.93
2023-02-11T14:44:04.587Z,14.88
2023-02-11T14:47:13.140Z,14.57
2023-02-11T14:50:26.314Z,15.00
2023-02-11T14:53:32.144Z,14.98
2023-02-11T14:56:36.345Z,14.93
2023-02-11T14:59:58.873Z,15.18
2023-02-11T15:03:02.536Z,15.53
2023-02-11T15:06:19.147Z,15.77
2023-02-11T15:09:41.423Z,15.50
2023-02-11T15:12:50.005Z,16.02
2023-02-11T15:16:02.147Z,15.65
2023-02-11T15:19:07.612Z,13.70
2023-02-11T15:22:26.200Z,15.18
2023-02-11T15:25:34.441Z,15.55
2023-02-11T15:28:37.724Z,16.35
2023-02-11T15:31:41.349Z,16.17
2023-02-11T15:34:46.259Z,15.23
2023-02-11T15:37:50.707Z,15.45
2023-02-11T15:41:01.097Z,15.40
2023-02-11T15:44:04.678Z,16.75
2023-02-11T15:47:17.480Z,15.57
2023-02-11T15:50:33.431Z,15.82
2023-02-11T15:53:43.184Z,13.95
2023-02-11T15:56:50.011Z,15.02
2023-02-11T15:59:56.503Z,15.17
2023-02-11T16:03:00.169Z,14.50
2023-02-11T16:06:23.295Z,15.35
2023-02-11T16:09:35.805Z,14.60
2023-02-11T16:12:39.537Z,14.93
2023-02-11T16:15:48.315Z,14.77
2023-02-11T16:19:04.794Z,15.45
2023-02-11T16:22:14.170Z,15.30
2023-02-11T16:25:21.708Z,15.60
2023-02-11T16:28:25.223Z,16.20
2023-02-11T16:31:37.452Z,14.73
2023-02-11T16:34:40.962Z,15.95
2023-02-11T16:37:48.033Z,15.80
2023-02-11T16:40:51.817Z,16.17
2023-02-11T16:43:58.893Z,14.68
2023-02-11T16:47:04.323Z,13.80
2023-02-11T16:50:10.605Z,14.50
2023-02-11T16:53:20.033Z,14.57
2023-02-11T16:56:23.540Z,15.30
2023-02-11T16:59:27.136Z,16.42
2023-02-11T17:02:33.611Z,14.10
2023-02-11T17:05:58.318Z,15.07
2023-02-11T17:09:00.946Z,15.80
2023-02-11T17:12:04.615Z,15.35
2023-02-11T17:15:08.557Z,15.30
2023-02-11T17:18:14.506Z,16.20
2023-02-11T17:21:17.863Z,14.48
2023-02-11T17:24:22.747Z,15.05
2023-02-11T17:27:26.609Z,15.17
2023-02-11T17:30:30.020Z,16.83
2023-02-11T17:33:36.026Z,16.25
2023-02-11T17:36:41.379Z,15.90
2023-02-11T17:39:44.941Z,17.07
2023-02-11T17:42:48.332Z,17.15
2023-02-11T17:45:52.214Z,17.08
2023-02-11T17:48:59.695Z,15.88
2023-02-11T17:52:03.662Z,16.97
2023-02-11T17:55:07.393Z,15.95
2023-02-11T17:58:11.151Z,16.05
2023-02-11T18:01:14.991Z,15.48
2023-02-11T18:04:19.933Z,16.57
2023-02-11T18:07:23.409Z,16.92
2023-02-11T18:10:27.540Z,15.73
2023-02-11T18:13:30.998Z,15.47
2023-02-11T18:16:36.610Z,15.25
2023-02-11T18:19:40.185Z,16.52
2023-02-11T18:22:44.330Z,15.40
2023-02-11T18:25:47.440Z,14.38
2023-02-11T18:28:52.626Z,15.45
2023-02-11T18:31:57.496Z,14.18
2023-02-11T18:35:01.101Z,15.47
2023-02-11T18:38:04.602Z,14.82
2023-02-11T18:41:08.393Z,14.88
2023-02-11T18:44:14.262Z,14.68
2023-02-11T18:47:17.743Z,14.13
2023-02-11T18:50:22.209Z,16.02
2023-02-11T18:53:25.788Z,14.40
2023-02-11T18:56:29.413Z,14.20
2023-02-11T18:59:33.164Z,15.02
2023-02-11T19:02:37.276Z,16.67
2023-02-11T19:05:48.659Z,16.08
2023-02-11T19:08:53.738Z,15.30
2023-02-11T19:11:59.866Z,16.38
2023-02-11T19:15:03.460Z,15.85
2023-02-11T19:18:07.192Z,15.10
2023-02-11T19:21:12.104Z,15.68
2023-02-11T19:24:18.973Z,17.27
2023-02-11T19:27:22.586Z,15.48
2023-02-11T19:30:25.974Z,15.15
2023-02-11T19:33:29.460Z,16.02
2023-02-11T19:36:33.546Z,16.15
2023-02-11T19:39:37.482Z,15.53
2023-02-11T19:42:42.540Z,15.98
2023-02-11T19:45:45.980Z,15.55
2023-02-11T19:48:49.884Z,16.70
2023-02-11T19:51:55.441Z,16.35
2023-02-11T19:54:59.314Z,16.33
2023-02-11T19:58:02.652Z,15.77
2023-02-11T20:01:15.222Z,16.20
2023-02-11T20:04:18.538Z,15.60
2023-02-11T20:07:21.984Z,16.67
2023-02-11T20:10:26.614Z,16.17
2023-02-11T20:13:30.634Z,16.25
2023-02-11T20:16:47.682Z,15.27
2023-02-11T20:19:52.115Z,17.27
2023-02-11T20:22:55.572Z,16.30
2023-02-11T20:25:59.123Z,16.83
2023-02-11T20:29:03.398Z,16.92
2023-02-11T20:32:08.260Z,17.20
2023-02-11T20:35:11.645Z,17.90
2023-02-11T20:38:15.072Z,17.45
2023-02-11T20:41:24.799Z,17.70
2023-02-11T20:44:29.449Z,18.80
2023-02-11T20:47:32.615Z,19.50
2023-02-11T20:50:36.041Z,19.08
2023-02-11T20:53:39.942Z,18.30
2023-02-11T20:56:45.531Z,18.42
2023-02-11T20:59:50.772Z,18.80
2023-02-11T21:02:54.130Z,19.73
2023-02-11T21:06:04.309Z,18.35
2023-02-11T21:09:09.753Z,20.05
2023-02-11T21:12:13.412Z,18.15
2023-02-11T21:15:17.013Z,19.40
2023-02-11T21:18:20.202Z,18.45
2023-02-11T21:21:26.744Z,18.90
2023-02-11T21:24:30.999Z,17.13
2023-02-11T21:27:34.996Z,16.88
2023-02-11T21:30:39.306Z,17.30
2023-02-11T21:33:42.681Z,15.53
2023-02-11T21:36:46.147Z,15.63
2023-02-11T21:39:49.571Z,14.60
2023-02-11T21:42:53.398Z,15.30
2023-02-11T21:45:57.353Z,15.35
2023-02-11T21:49:01.058Z,13.57
2023-02-11T21:52:04.641Z,14.18
2023-02-11T21:55:08.757Z,14.30
2023-02-11T21:58:13.629Z,12.82
2023-02-11T22:01:22.617Z,14.00
2023-02-11T22:04:27.138Z,13.13
2023-02-11T22:07:30.429Z,13.00
2023-02-11T22:10:33.600Z,12.70
2023-02-11T22:13:37.281Z,12.98
2023-02-11T22:16:40.865Z,12.50
2023-02-11T22:19:44.236Z,11.95
2023-02-11T22:22:47.831Z,12.10
2023-02-11T22:25:51.590Z,12.05
2023-02-11T22:28:55.543Z,11.90
2023-02-11T22:31:59.171Z,12.23
2023-02-11T22:35:02.535Z,13.05
2023-02-11T22:38:05.671Z,12.55
2023-02-11T22:41:10.782Z,14.40
2023-02-11T22:44:16.450Z,12.48
2023-02-11T22:47:19.698Z,12.35
2023-02-11T23:00:36.037Z,12.65
2023-02-11T23:03:39.823Z,12.00
2023-02-11T23:06:43.372Z,11.93
2023-02-11T23:09:46.858Z,11.60
2023-02-11T23:12:50.139Z,11.77
2023-02-11T23:15:53.483Z,11.50
2023-02-11T23:19:00.105Z,11.83
2023-02-11T23:22:03.771Z,12.13
2023-02-11T23:25:07.009Z,11.90
2023-02-11T23:28:10.858Z,11.98
2023-02-11T23:31:37.482Z,11.07
2023-02-11T23:34:41.068Z,11.55
2023-02-11T23:37:44.211Z,10.82
2023-02-11T23:40:47.411Z,10.68
2023-02-11T23:43:52.796Z,10.33
2023-02-11T23:46:56.023Z,10.60
2023-02-11T23:49:59.693Z,10.85
2023-02-11T23:53:02.905Z,11.53
2023-02-11T23:56:16.338Z,10.68
2023-02-11T23:59:19.471Z,10.52
